sensor_id;sensor_type;location;lat;lon;timestamp;P1;durP1;ratioP1;P2;durP2;ratioP2
66886;SDS011;53798;51.680;5.976;2022-11-20T00:01:30;22.92;;;14.05;;
66886;SDS011;53798;51.680;5.976;2022-11-20T00:03:59;23.20;;;13.50;;
66886;SDS011;53798;51.680;5.976;2022-11-20T00:06:27;25.48;;;15.13;;
66886;SDS011;53798;51.680;5.976;2022-11-20T00:08:56;22.55;;;14.75;;
66886;SDS011;53798;51.680;5.976;2022-11-20T00:11:28;28.17;;;15.80;;
66886;SDS011;53798;51.680;5.976;2022-11-20T00:13:58;22.10;;;13.73;;
66886;SDS011;53798;51.680;5.976;2022-11-20T00:16:28;22.83;;;14.15;;
66886;SDS011;53798;51.680;5.976;2022-11-20T00:18:59;26.30;;;15.40;;
66886;SDS011;53798;51.680;5.976;2022-11-20T00:21:27;25.02;;;15.60;;
66886;SDS011;53798;51.680;5.976;2022-11-20T00:23:56;24.85;;;14.55;;
66886;SDS011;53798;51.680;5.976;2022-11-20T00:26:24;23.02;;;14.68;;
66886;SDS011;53798;51.680;5.976;2022-11-20T00:28:54;23.27;;;14.25;;
66886;SDS011;53798;51.680;5.976;2022-11-20T00:31:25;23.75;;;14.77;;
66886;SDS011;53798;51.680;5.976;2022-11-20T00:33:54;23.63;;;15.60;;
66886;SDS011;53798;51.680;5.976;2022-11-20T00:36:23;25.67;;;15.68;;
66886;SDS011;53798;51.680;5.976;2022-11-20T00:38:56;23.13;;;14.30;;
66886;SDS011;53798;51.680;5.976;2022-11-20T00:41:28;23.00;;;13.98;;
66886;SDS011;53798;51.680;5.976;2022-11-20T00:43:56;23.67;;;14.52;;
66886;SDS011;53798;51.680;5.976;2022-11-20T00:46:25;24.33;;;14.48;;
66886;SDS011;53798;51.680;5.976;2022-11-20T00:48:54;24.98;;;14.77;;
66886;SDS011;53798;51.680;5.976;2022-11-20T00:51:22;23.20;;;15.00;;
66886;SDS011;53798;51.680;5.976;2022-11-20T00:53:54;22.08;;;14.63;;
66886;SDS011;53798;51.680;5.976;2022-11-20T00:56:25;24.75;;;14.48;;
66886;SDS011;53798;51.680;5.976;2022-11-20T00:58:52;24.85;;;15.18;;
66886;SDS011;53798;51.680;5.976;2022-11-20T01:01:23;22.48;;;15.13;;
66886;SDS011;53798;51.680;5.976;2022-11-20T01:03:53;24.00;;;14.50;;
66886;SDS011;53798;51.680;5.976;2022-11-20T01:06:24;23.05;;;14.68;;
66886;SDS011;53798;51.680;5.976;2022-11-20T01:08:55;25.55;;;15.68;;
66886;SDS011;53798;51.680;5.976;2022-11-20T01:11:29;25.58;;;16.13;;
66886;SDS011;53798;51.680;5.976;2022-11-20T01:14:00;25.02;;;15.65;;
66886;SDS011;53798;51.680;5.976;2022-11-20T01:16:33;24.35;;;15.57;;
66886;SDS011;53798;51.680;5.976;2022-11-20T01:19:04;27.52;;;15.85;;
66886;SDS011;53798;51.680;5.976;2022-11-20T01:21:37;26.45;;;14.52;;
66886;SDS011;53798;51.680;5.976;2022-11-20T01:24:07;26.95;;;16.05;;
66886;SDS011;53798;51.680;5.976;2022-11-20T01:26:42;26.25;;;15.32;;
66886;SDS011;53798;51.680;5.976;2022-11-20T01:29:14;25.08;;;15.15;;
66886;SDS011;53798;51.680;5.976;2022-11-20T01:31:48;24.67;;;15.05;;
66886;SDS011;53798;51.680;5.976;2022-11-20T01:34:17;26.40;;;15.10;;
66886;SDS011;53798;51.680;5.976;2022-11-20T01:36:48;23.90;;;15.15;;
66886;SDS011;53798;51.680;5.976;2022-11-20T01:39:17;23.67;;;15.45;;
66886;SDS011;53798;51.680;5.976;2022-11-20T01:41:49;22.75;;;14.80;;
66886;SDS011;53798;51.680;5.976;2022-11-20T01:47:44;24.83;;;15.10;;
66886;SDS011;53798;51.680;5.976;2022-11-20T01:53:01;25.75;;;15.02;;
66886;SDS011;53798;51.680;5.976;2022-11-20T01:55:40;23.98;;;14.80;;
66886;SDS011;53798;51.680;5.976;2022-11-20T01:58:14;28.80;;;16.05;;
66886;SDS011;53798;51.680;5.976;2022-11-20T02:00:48;25.02;;;15.27;;
66886;SDS011;53798;51.680;5.976;2022-11-20T02:03:15;21.33;;;14.18;;
66886;SDS011;53798;51.680;5.976;2022-11-20T02:05:54;22.42;;;14.20;;
66886;SDS011;53798;51.680;5.976;2022-11-20T02:08:32;24.90;;;15.05;;
66886;SDS011;53798;51.680;5.976;2022-11-20T02:11:00;25.45;;;15.73;;
66886;SDS011;53798;51.680;5.976;2022-11-20T02:13:28;25.13;;;16.02;;
66886;SDS011;53798;51.680;5.976;2022-11-20T02:16:18;24.42;;;15.30;;
66886;SDS011;53798;51.680;5.976;2022-11-20T02:18:52;23.40;;;15.10;;
66886;SDS011;53798;51.680;5.976;2022-11-20T02:21:42;27.90;;;15.93;;
66886;SDS011;53798;51.680;5.976;2022-11-20T02:24:22;22.05;;;14.05;;
66886;SDS011;53798;51.680;5.976;2022-11-20T02:29:31;25.98;;;15.63;;
66886;SDS011;53798;51.680;5.976;2022-11-20T02:32:04;27.15;;;15.75;;
66886;SDS011;53798;51.680;5.976;2022-11-20T02:34:31;24.98;;;15.50;;
66886;SDS011;53798;51.680;5.976;2022-11-20T02:36:59;25.83;;;16.35;;
66886;SDS011;53798;51.680;5.976;2022-11-20T02:39:26;26.83;;;16.10;;
66886;SDS011;53798;51.680;5.976;2022-11-20T02:41:55;23.88;;;15.48;;
66886;SDS011;53798;51.680;5.976;2022-11-20T02:44:23;28.25;;;16.10;;
66886;SDS011;53798;51.680;5.976;2022-11-20T02:46:50;26.48;;;16.70;;
66886;SDS011;53798;51.680;5.976;2022-11-20T02:49:17;26.52;;;16.30;;
66886;SDS011;53798;51.680;5.976;2022-11-20T02:51:45;27.55;;;16.48;;
66886;SDS011;53798;51.680;5.976;2022-11-20T02:54:12;24.55;;;16.00;;
66886;SDS011;53798;51.680;5.976;2022-11-20T02:56:39;28.02;;;16.58;;
66886;SDS011;53798;51.680;5.976;2022-11-20T02:59:07;27.13;;;16.58;;
66886;SDS011;53798;51.680;5.976;2022-11-20T03:01:34;28.65;;;16.40;;
66886;SDS011;53798;51.680;5.976;2022-11-20T03:04:02;25.65;;;16.30;;
66886;SDS011;53798;51.680;5.976;2022-11-20T03:06:29;22.83;;;15.30;;
66886;SDS011;53798;51.680;5.976;2022-11-20T03:08:57;26.17;;;15.07;;
66886;SDS011;53798;51.680;5.976;2022-11-20T03:11:24;24.98;;;15.55;;
66886;SDS011;53798;51.680;5.976;2022-11-20T03:13:51;27.30;;;16.40;;
66886;SDS011;53798;51.680;5.976;2022-11-20T03:16:21;26.70;;;15.38;;
66886;SDS011;53798;51.680;5.976;2022-11-20T03:18:51;26.75;;;15.93;;
66886;SDS011;53798;51.680;5.976;2022-11-20T03:21:19;27.83;;;16.20;;
66886;SDS011;53798;51.680;5.976;2022-11-20T03:23:46;26.85;;;16.13;;
66886;SDS011;53798;51.680;5.976;2022-11-20T03:26:15;36.03;;;19.50;;
66886;SDS011;53798;51.680;5.976;2022-11-20T03:28:46;52.05;;;26.98;;
66886;SDS011;53798;51.680;5.976;2022-11-20T03:31:19;65.18;;;32.10;;
66886;SDS011;53798;51.680;5.976;2022-11-20T03:33:58;51.35;;;27.08;;
66886;SDS011;53798;51.680;5.976;2022-11-20T03:36:26;46.90;;;27.00;;
66886;SDS011;53798;51.680;5.976;2022-11-20T03:38:55;32.67;;;18.33;;
66886;SDS011;53798;51.680;5.976;2022-11-20T03:41:27;28.52;;;18.17;;
66886;SDS011;53798;51.680;5.976;2022-11-20T03:43:59;29.30;;;17.50;;
66886;SDS011;53798;51.680;5.976;2022-11-20T03:46:29;26.92;;;16.95;;
66886;SDS011;53798;51.680;5.976;2022-11-20T03:48:57;26.05;;;15.90;;
66886;SDS011;53798;51.680;5.976;2022-11-20T03:51:26;26.60;;;16.17;;
66886;SDS011;53798;51.680;5.976;2022-11-20T03:53:59;25.45;;;16.65;;
66886;SDS011;53798;51.680;5.976;2022-11-20T03:56:30;26.65;;;16.55;;
66886;SDS011;53798;51.680;5.976;2022-11-20T03:59:01;28.45;;;16.77;;
66886;SDS011;53798;51.680;5.976;2022-11-20T04:01:33;31.80;;;17.63;;
66886;SDS011;53798;51.680;5.976;2022-11-20T04:04:03;27.70;;;16.38;;
66886;SDS011;53798;51.680;5.976;2022-11-20T04:06:35;26.10;;;16.42;;
66886;SDS011;53798;51.680;5.976;2022-11-20T04:09:04;28.17;;;17.40;;
66886;SDS011;53798;51.680;5.976;2022-11-20T04:11:33;28.88;;;17.15;;
66886;SDS011;53798;51.680;5.976;2022-11-20T04:14:03;31.20;;;17.70;;
66886;SDS011;53798;51.680;5.976;2022-11-20T04:16:34;28.90;;;16.67;;
66886;SDS011;53798;51.680;5.976;2022-11-20T04:19:03;27.38;;;16.48;;
66886;SDS011;53798;51.680;5.976;2022-11-20T04:21:35;27.33;;;16.00;;
66886;SDS011;53798;51.680;5.976;2022-11-20T04:24:02;27.45;;;16.02;;
66886;SDS011;53798;51.680;5.976;2022-11-20T04:26:30;27.30;;;16.48;;
66886;SDS011;53798;51.680;5.976;2022-11-20T04:28:57;25.23;;;16.00;;
66886;SDS011;53798;51.680;5.976;2022-11-20T04:31:27;32.03;;;16.65;;
66886;SDS011;53798;51.680;5.976;2022-11-20T04:34:00;27.77;;;16.67;;
66886;SDS011;53798;51.680;5.976;2022-11-20T04:36:31;27.25;;;16.02;;
66886;SDS011;53798;51.680;5.976;2022-11-20T04:39:00;28.08;;;16.45;;
66886;SDS011;53798;51.680;5.976;2022-11-20T04:41:33;28.83;;;15.93;;
66886;SDS011;53798;51.680;5.976;2022-11-20T04:44:03;28.58;;;17.50;;
66886;SDS011;53798;51.680;5.976;2022-11-20T04:46:36;34.35;;;19.95;;
66886;SDS011;53798;51.680;5.976;2022-11-20T04:49:08;28.55;;;19.00;;
66886;SDS011;53798;51.680;5.976;2022-11-20T04:51:39;31.90;;;19.83;;
66886;SDS011;53798;51.680;5.976;2022-11-20T04:54:06;32.83;;;18.00;;
66886;SDS011;53798;51.680;5.976;2022-11-20T04:56:33;29.48;;;17.30;;
66886;SDS011;53798;51.680;5.976;2022-11-20T04:59:01;27.63;;;16.45;;
66886;SDS011;53798;51.680;5.976;2022-11-20T05:01:31;28.17;;;16.30;;
66886;SDS011;53798;51.680;5.976;2022-11-20T05:03:59;26.58;;;16.13;;
66886;SDS011;53798;51.680;5.976;2022-11-20T05:06:26;30.77;;;16.83;;
66886;SDS011;53798;51.680;5.976;2022-11-20T05:08:53;27.80;;;16.30;;
66886;SDS011;53798;51.680;5.976;2022-11-20T05:11:20;24.60;;;15.27;;
66886;SDS011;53798;51.680;5.976;2022-11-20T05:13:48;26.48;;;15.32;;
66886;SDS011;53798;51.680;5.976;2022-11-20T05:16:19;26.25;;;15.68;;
66886;SDS011;53798;51.680;5.976;2022-11-20T05:18:50;27.27;;;16.27;;
66886;SDS011;53798;51.680;5.976;2022-11-20T05:21:21;25.33;;;15.50;;
66886;SDS011;53798;51.680;5.976;2022-11-20T05:23:48;26.05;;;15.65;;
66886;SDS011;53798;51.680;5.976;2022-11-20T05:26:16;27.90;;;16.60;;
66886;SDS011;53798;51.680;5.976;2022-11-20T05:28:48;30.73;;;17.13;;
66886;SDS011;53798;51.680;5.976;2022-11-20T05:31:19;41.55;;;22.75;;
66886;SDS011;53798;51.680;5.976;2022-11-20T05:33:55;92.45;;;42.90;;
66886;SDS011;53798;51.680;5.976;2022-11-20T05:36:24;45.58;;;24.40;;
66886;SDS011;53798;51.680;5.976;2022-11-20T05:38:52;34.38;;;18.85;;
66886;SDS011;53798;51.680;5.976;2022-11-20T05:41:25;28.40;;;16.80;;
66886;SDS011;53798;51.680;5.976;2022-11-20T05:43:52;28.92;;;16.33;;
66886;SDS011;53798;51.680;5.976;2022-11-20T05:46:20;29.52;;;17.08;;
66886;SDS011;53798;51.680;5.976;2022-11-20T05:51:23;23.95;;;14.35;;
66886;SDS011;53798;51.680;5.976;2022-11-20T05:53:55;26.77;;;15.65;;
66886;SDS011;53798;51.680;5.976;2022-11-20T05:56:24;25.50;;;16.02;;
66886;SDS011;53798;51.680;5.976;2022-11-20T05:58:51;27.08;;;16.20;;
66886;SDS011;53798;51.680;5.976;2022-11-20T06:01:22;28.67;;;17.65;;
66886;SDS011;53798;51.680;5.976;2022-11-20T06:03:52;30.42;;;18.02;;
66886;SDS011;53798;51.680;5.976;2022-11-20T06:06:20;29.83;;;18.95;;
66886;SDS011;53798;51.680;5.976;2022-11-20T06:08:49;33.88;;;19.13;;
66886;SDS011;53798;51.680;5.976;2022-11-20T06:11:16;30.30;;;18.42;;
66886;SDS011;53798;51.680;5.976;2022-11-20T06:13:44;34.47;;;19.52;;
66886;SDS011;53798;51.680;5.976;2022-11-20T06:16:13;34.05;;;18.83;;
66886;SDS011;53798;51.680;5.976;2022-11-20T06:18:44;29.38;;;18.42;;
66886;SDS011;53798;51.680;5.976;2022-11-20T06:21:12;29.63;;;17.58;;
66886;SDS011;53798;51.680;5.976;2022-11-20T06:23:43;31.23;;;17.75;;
66886;SDS011;53798;51.680;5.976;2022-11-20T06:26:12;32.28;;;18.48;;
66886;SDS011;53798;51.680;5.976;2022-11-20T06:28:45;29.47;;;17.90;;
66886;SDS011;53798;51.680;5.976;2022-11-20T06:31:14;28.58;;;17.55;;
66886;SDS011;53798;51.680;5.976;2022-11-20T06:33:43;27.00;;;16.88;;
66886;SDS011;53798;51.680;5.976;2022-11-20T06:36:12;28.85;;;17.30;;
66886;SDS011;53798;51.680;5.976;2022-11-20T06:38:41;31.35;;;18.85;;
66886;SDS011;53798;51.680;5.976;2022-11-20T06:41:14;28.42;;;17.42;;
66886;SDS011;53798;51.680;5.976;2022-11-20T06:43:45;30.02;;;17.67;;
66886;SDS011;53798;51.680;5.976;2022-11-20T06:46:14;28.92;;;17.88;;
66886;SDS011;53798;51.680;5.976;2022-11-20T06:48:49;26.53;;;17.17;;
66886;SDS011;53798;51.680;5.976;2022-11-20T06:51:17;26.95;;;17.02;;
66886;SDS011;53798;51.680;5.976;2022-11-20T06:53:45;30.85;;;17.15;;
66886;SDS011;53798;51.680;5.976;2022-11-20T06:56:12;28.92;;;16.77;;
66886;SDS011;53798;51.680;5.976;2022-11-20T06:58:39;28.40;;;17.58;;
66886;SDS011;53798;51.680;5.976;2022-11-20T07:01:08;28.75;;;17.17;;
66886;SDS011;53798;51.680;5.976;2022-11-20T07:03:39;28.98;;;17.13;;
66886;SDS011;53798;51.680;5.976;2022-11-20T07:06:07;27.80;;;17.13;;
66886;SDS011;53798;51.680;5.976;2022-11-20T07:08:35;32.00;;;18.67;;
66886;SDS011;53798;51.680;5.976;2022-11-20T07:11:03;28.85;;;17.65;;
66886;SDS011;53798;51.680;5.976;2022-11-20T07:13:34;30.05;;;16.83;;
66886;SDS011;53798;51.680;5.976;2022-11-20T07:16:02;28.70;;;17.63;;
66886;SDS011;53798;51.680;5.976;2022-11-20T07:18:32;26.08;;;16.75;;
66886;SDS011;53798;51.680;5.976;2022-11-20T07:21:01;29.55;;;17.95;;
66886;SDS011;53798;51.680;5.976;2022-11-20T07:23:30;28.08;;;17.10;;
66886;SDS011;53798;51.680;5.976;2022-11-20T07:26:02;28.33;;;16.60;;
66886;SDS011;53798;51.680;5.976;2022-11-20T07:28:34;29.05;;;16.80;;
66886;SDS011;53798;51.680;5.976;2022-11-20T07:31:02;27.50;;;17.20;;
66886;SDS011;53798;51.680;5.976;2022-11-20T07:33:30;26.63;;;16.65;;
66886;SDS011;53798;51.680;5.976;2022-11-20T07:36:00;27.38;;;16.80;;
66886;SDS011;53798;51.680;5.976;2022-11-20T07:38:28;27.75;;;17.63;;
66886;SDS011;53798;51.680;5.976;2022-11-20T07:40:56;26.23;;;17.20;;
66886;SDS011;53798;51.680;5.976;2022-11-20T07:43:24;28.48;;;17.77;;
66886;SDS011;53798;51.680;5.976;2022-11-20T07:45:52;28.05;;;17.00;;
66886;SDS011;53798;51.680;5.976;2022-11-20T07:48:23;26.55;;;17.13;;
66886;SDS011;53798;51.680;5.976;2022-11-20T07:50:54;26.27;;;16.85;;
66886;SDS011;53798;51.680;5.976;2022-11-20T07:53:22;27.25;;;17.63;;
66886;SDS011;53798;51.680;5.976;2022-11-20T07:55:50;27.02;;;17.23;;
66886;SDS011;53798;51.680;5.976;2022-11-20T07:58:20;25.77;;;17.15;;
66886;SDS011;53798;51.680;5.976;2022-11-20T08:00:48;26.25;;;17.60;;
66886;SDS011;53798;51.680;5.976;2022-11-20T08:03:15;36.25;;;24.10;;
66886;SDS011;53798;51.680;5.976;2022-11-20T08:05:50;30.13;;;20.30;;
66886;SDS011;53798;51.680;5.976;2022-11-20T08:08:18;30.13;;;19.83;;
66886;SDS011;53798;51.680;5.976;2022-11-20T08:10:45;29.65;;;19.33;;
66886;SDS011;53798;51.680;5.976;2022-11-20T08:13:12;30.42;;;19.95;;
66886;SDS011;53798;51.680;5.976;2022-11-20T08:15:57;30.05;;;19.83;;
66886;SDS011;53798;51.680;5.976;2022-11-20T08:18:25;29.33;;;19.58;;
66886;SDS011;53798;51.680;5.976;2022-11-20T08:21:01;30.80;;;20.40;;
66886;SDS011;53798;51.680;5.976;2022-11-20T08:23:30;28.58;;;19.00;;
66886;SDS011;53798;51.680;5.976;2022-11-20T08:25:58;30.33;;;19.70;;
66886;SDS011;53798;51.680;5.976;2022-11-20T08:28:26;26.77;;;17.67;;
66886;SDS011;53798;51.680;5.976;2022-11-20T08:30:58;30.33;;;19.23;;
66886;SDS011;53798;51.680;5.976;2022-11-20T08:33:29;30.08;;;20.13;;
66886;SDS011;53798;51.680;5.976;2022-11-20T08:35:59;32.05;;;20.77;;
66886;SDS011;53798;51.680;5.976;2022-11-20T08:38:31;31.90;;;19.27;;
66886;SDS011;53798;51.680;5.976;2022-11-20T08:41:00;28.00;;;18.02;;
66886;SDS011;53798;51.680;5.976;2022-11-20T08:43:49;27.55;;;19.13;;
66886;SDS011;53798;51.680;5.976;2022-11-20T08:46:23;26.33;;;18.73;;
66886;SDS011;53798;51.680;5.976;2022-11-20T08:48:52;26.67;;;18.67;;
66886;SDS011;53798;51.680;5.976;2022-11-20T08:51:20;27.85;;;18.35;;
66886;SDS011;53798;51.680;5.976;2022-11-20T08:53:48;27.70;;;19.30;;
66886;SDS011;53798;51.680;5.976;2022-11-20T08:56:16;27.85;;;17.77;;
66886;SDS011;53798;51.680;5.976;2022-11-20T08:58:44;31.13;;;22.20;;
66886;SDS011;53798;51.680;5.976;2022-11-20T09:01:31;28.23;;;19.35;;
66886;SDS011;53798;51.680;5.976;2022-11-20T09:03:58;30.33;;;19.33;;
66886;SDS011;53798;51.680;5.976;2022-11-20T09:06:26;27.30;;;18.40;;
66886;SDS011;53798;51.680;5.976;2022-11-20T09:08:53;27.48;;;17.40;;
66886;SDS011;53798;51.680;5.976;2022-11-20T09:11:21;25.33;;;17.25;;
66886;SDS011;53798;51.680;5.976;2022-11-20T09:13:48;25.35;;;18.10;;
66886;SDS011;53798;51.680;5.976;2022-11-20T09:16:16;26.25;;;17.30;;
66886;SDS011;53798;51.680;5.976;2022-11-20T09:18:43;32.65;;;17.42;;
66886;SDS011;53798;51.680;5.976;2022-11-20T09:21:10;26.23;;;17.42;;
66886;SDS011;53798;51.680;5.976;2022-11-20T09:23:41;31.60;;;21.70;;
66886;SDS011;53798;51.680;5.976;2022-11-20T09:26:09;28.23;;;17.88;;
66886;SDS011;53798;51.680;5.976;2022-11-20T09:28:40;26.88;;;19.10;;
66886;SDS011;53798;51.680;5.976;2022-11-20T09:31:08;34.35;;;22.65;;
66886;SDS011;53798;51.680;5.976;2022-11-20T09:33:48;32.42;;;19.58;;
66886;SDS011;53798;51.680;5.976;2022-11-20T09:36:15;28.48;;;18.58;;
66886;SDS011;53798;51.680;5.976;2022-11-20T09:38:45;25.75;;;17.77;;
66886;SDS011;53798;51.680;5.976;2022-11-20T09:41:31;28.98;;;20.88;;
66886;SDS011;53798;51.680;5.976;2022-11-20T09:50:36;29.48;;;19.30;;
66886;SDS011;53798;51.680;5.976;2022-11-20T09:56:12;26.25;;;18.17;;
66886;SDS011;53798;51.680;5.976;2022-11-20T09:58:52;28.58;;;18.48;;
66886;SDS011;53798;51.680;5.976;2022-11-20T10:01:26;28.65;;;18.85;;
66886;SDS011;53798;51.680;5.976;2022-11-20T10:04:02;28.25;;;18.77;;
66886;SDS011;53798;51.680;5.976;2022-11-20T10:06:34;29.15;;;18.85;;
66886;SDS011;53798;51.680;5.976;2022-11-20T10:29:10;31.13;;;20.20;;
66886;SDS011;53798;51.680;5.976;2022-11-20T10:31:44;26.83;;;19.58;;
66886;SDS011;53798;51.680;5.976;2022-11-20T10:34:22;29.40;;;20.15;;
66886;SDS011;53798;51.680;5.976;2022-11-20T10:36:59;30.83;;;19.65;;
66886;SDS011;53798;51.680;5.976;2022-11-20T10:42:46;32.63;;;20.23;;
66886;SDS011;53798;51.680;5.976;2022-11-20T10:48:00;26.80;;;19.13;;
66886;SDS011;53798;51.680;5.976;2022-11-20T10:50:54;28.67;;;19.45;;
66886;SDS011;53798;51.680;5.976;2022-11-20T10:56:53;31.33;;;20.65;;
66886;SDS011;53798;51.680;5.976;2022-11-20T11:02:22;27.67;;;18.42;;
66886;SDS011;53798;51.680;5.976;2022-11-20T11:04:57;26.45;;;18.17;;
66886;SDS011;53798;51.680;5.976;2022-11-20T11:07:40;26.13;;;17.85;;
66886;SDS011;53798;51.680;5.976;2022-11-20T11:13:07;27.45;;;18.00;;
66886;SDS011;53798;51.680;5.976;2022-11-20T11:15:50;27.80;;;18.05;;
66886;SDS011;53798;51.680;5.976;2022-11-20T11:18:37;27.60;;;19.20;;
66886;SDS011;53798;51.680;5.976;2022-11-20T11:23:35;27.42;;;18.83;;
66886;SDS011;53798;51.680;5.976;2022-11-20T11:29:00;27.52;;;17.95;;
66886;SDS011;53798;51.680;5.976;2022-11-20T11:31:31;25.92;;;17.45;;
66886;SDS011;53798;51.680;5.976;2022-11-20T11:34:11;24.92;;;17.23;;
66886;SDS011;53798;51.680;5.976;2022-11-20T11:36:42;25.35;;;16.83;;
66886;SDS011;53798;51.680;5.976;2022-11-20T11:39:22;27.85;;;17.42;;
66886;SDS011;53798;51.680;5.976;2022-11-20T11:41:52;26.65;;;17.85;;
66886;SDS011;53798;51.680;5.976;2022-11-20T11:47:35;30.05;;;17.85;;
66886;SDS011;53798;51.680;5.976;2022-11-20T11:55:44;35.72;;;20.27;;
66886;SDS011;53798;51.680;5.976;2022-11-20T11:58:41;34.38;;;19.13;;
66886;SDS011;53798;51.680;5.976;2022-11-20T12:07:15;55.13;;;32.78;;
66886;SDS011;53798;51.680;5.976;2022-11-20T12:10:15;26.27;;;16.80;;
66886;SDS011;53798;51.680;5.976;2022-11-20T12:12:48;213.60;;;126.10;;
66886;SDS011;53798;51.680;5.976;2022-11-20T12:15:25;33.63;;;21.42;;
66886;SDS011;53798;51.680;5.976;2022-11-20T12:20:27;33.85;;;19.88;;
66886;SDS011;53798;51.680;5.976;2022-11-20T12:23:27;39.55;;;23.42;;
66886;SDS011;53798;51.680;5.976;2022-11-20T12:26:08;29.80;;;17.88;;
66886;SDS011;53798;51.680;5.976;2022-11-20T12:29:14;30.08;;;18.33;;
66886;SDS011;53798;51.680;5.976;2022-11-20T12:38:08;29.27;;;18.17;;
66886;SDS011;53798;51.680;5.976;2022-11-20T12:41:00;33.42;;;19.27;;
66886;SDS011;53798;51.680;5.976;2022-11-20T12:50:28;32.88;;;19.25;;
66886;SDS011;53798;51.680;5.976;2022-11-20T12:53:40;32.75;;;19.90;;
66886;SDS011;53798;51.680;5.976;2022-11-20T12:57:08;36.83;;;21.10;;
66886;SDS011;53798;51.680;5.976;2022-11-20T13:08:23;40.72;;;22.58;;
66886;SDS011;53798;51.680;5.976;2022-11-20T13:19:11;33.08;;;21.17;;
66886;SDS011;53798;51.680;5.976;2022-11-20T13:21:42;37.03;;;22.02;;
66886;SDS011;53798;51.680;5.976;2022-11-20T13:27:03;36.15;;;21.60;;
66886;SDS011;53798;51.680;5.976;2022-11-20T13:29:47;48.22;;;23.52;;
66886;SDS011;53798;51.680;5.976;2022-11-20T13:33:43;44.00;;;23.23;;
66886;SDS011;53798;51.680;5.976;2022-11-20T13:35:55;43.03;;;23.67;;
66886;SDS011;53798;51.680;5.976;2022-11-20T13:38:46;47.88;;;23.85;;
66886;SDS011;53798;51.680;5.976;2022-11-20T13:44:22;51.22;;;24.60;;
66886;SDS011;53798;51.680;5.976;2022-11-20T13:47:04;53.08;;;24.80;;
66886;SDS011;53798;51.680;5.976;2022-11-20T13:49:52;59.97;;;25.90;;
66886;SDS011;53798;51.680;5.976;2022-11-20T13:52:46;63.15;;;25.38;;
66886;SDS011;53798;51.680;5.976;2022-11-20T13:58:36;60.85;;;24.55;;
66886;SDS011;53798;51.680;5.976;2022-11-20T14:01:23;58.47;;;26.17;;
66886;SDS011;53798;51.680;5.976;2022-11-20T14:03:55;58.53;;;24.88;;
66886;SDS011;53798;51.680;5.976;2022-11-20T14:06:32;60.28;;;25.10;;
66886;SDS011;53798;51.680;5.976;2022-11-20T14:09:10;60.45;;;24.75;;
66886;SDS011;53798;51.680;5.976;2022-11-20T14:11:50;56.13;;;24.48;;
66886;SDS011;53798;51.680;5.976;2022-11-20T14:14:19;66.80;;;26.08;;
66886;SDS011;53798;51.680;5.976;2022-11-20T14:16:49;59.97;;;25.35;;
66886;SDS011;53798;51.680;5.976;2022-11-20T14:21:54;54.65;;;24.25;;
66886;SDS011;53798;51.680;5.976;2022-11-20T14:24:37;67.95;;;26.70;;
66886;SDS011;53798;51.680;5.976;2022-11-20T14:27:04;69.00;;;27.10;;
66886;SDS011;53798;51.680;5.976;2022-11-20T14:29:44;65.75;;;26.05;;
66886;SDS011;53798;51.680;5.976;2022-11-20T14:32:15;64.97;;;26.48;;
66886;SDS011;53798;51.680;5.976;2022-11-20T14:34:47;64.25;;;26.42;;
66886;SDS011;53798;51.680;5.976;2022-11-20T14:37:19;70.43;;;28.42;;
66886;SDS011;53798;51.680;5.976;2022-11-20T14:39:51;66.22;;;26.67;;
66886;SDS011;53798;51.680;5.976;2022-11-20T14:42:23;63.63;;;27.27;;
66886;SDS011;53798;51.680;5.976;2022-11-20T14:44:57;67.75;;;26.90;;
66886;SDS011;53798;51.680;5.976;2022-11-20T14:47:29;65.38;;;26.83;;
66886;SDS011;53798;51.680;5.976;2022-11-20T14:49:58;65.80;;;27.15;;
66886;SDS011;53798;51.680;5.976;2022-11-20T14:52:35;65.22;;;25.88;;
66886;SDS011;53798;51.680;5.976;2022-11-20T14:55:02;60.78;;;26.77;;
66886;SDS011;53798;51.680;5.976;2022-11-20T15:02:39;66.05;;;29.10;;
66886;SDS011;53798;51.680;5.976;2022-11-20T15:05:14;58.70;;;24.73;;
66886;SDS011;53798;51.680;5.976;2022-11-20T15:07:45;59.67;;;26.33;;
66886;SDS011;53798;51.680;5.976;2022-11-20T15:12:47;72.45;;;37.13;;
66886;SDS011;53798;51.680;5.976;2022-11-20T15:15:37;56.92;;;26.00;;
66886;SDS011;53798;51.680;5.976;2022-11-20T15:20:44;52.47;;;23.35;;
66886;SDS011;53798;51.680;5.976;2022-11-20T15:23:13;98.95;;;56.85;;
66886;SDS011;53798;51.680;5.976;2022-11-20T15:25:47;59.42;;;29.05;;
66886;SDS011;53798;51.680;5.976;2022-11-20T15:28:23;62.10;;;27.75;;
66886;SDS011;53798;51.680;5.976;2022-11-20T15:30:58;73.65;;;36.60;;
66886;SDS011;53798;51.680;5.976;2022-11-20T15:33:29;71.40;;;29.08;;
66886;SDS011;53798;51.680;5.976;2022-11-20T15:35:59;62.65;;;26.08;;
66886;SDS011;53798;51.680;5.976;2022-11-20T15:38:27;59.08;;;26.45;;
66886;SDS011;53798;51.680;5.976;2022-11-20T15:40:54;63.67;;;24.30;;
66886;SDS011;53798;51.680;5.976;2022-11-20T15:43:21;57.03;;;24.98;;
66886;SDS011;53798;51.680;5.976;2022-11-20T15:45:53;59.17;;;25.13;;
66886;SDS011;53798;51.680;5.976;2022-11-20T15:48:34;64.20;;;25.38;;
66886;SDS011;53798;51.680;5.976;2022-11-20T15:54:24;70.68;;;31.30;;
66886;SDS011;53798;51.680;5.976;2022-11-20T15:56:50;56.13;;;23.52;;
66886;SDS011;53798;51.680;5.976;2022-11-20T15:59:20;59.38;;;23.92;;
66886;SDS011;53798;51.680;5.976;2022-11-20T16:01:49;54.72;;;23.70;;
66886;SDS011;53798;51.680;5.976;2022-11-20T16:04:16;56.70;;;23.50;;
66886;SDS011;53798;51.680;5.976;2022-11-20T16:06:44;51.65;;;24.30;;
66886;SDS011;53798;51.680;5.976;2022-11-20T16:09:12;59.05;;;24.83;;
66886;SDS011;53798;51.680;5.976;2022-11-20T16:11:39;55.67;;;25.52;;
66886;SDS011;53798;51.680;5.976;2022-11-20T16:14:08;54.00;;;24.25;;
66886;SDS011;53798;51.680;5.976;2022-11-20T16:16:55;57.75;;;24.35;;
66886;SDS011;53798;51.680;5.976;2022-11-20T16:19:22;62.80;;;25.80;;
66886;SDS011;53798;51.680;5.976;2022-11-20T16:21:50;54.63;;;23.35;;
66886;SDS011;53798;51.680;5.976;2022-11-20T16:24:17;55.53;;;24.40;;
66886;SDS011;53798;51.680;5.976;2022-11-20T16:26:46;59.70;;;25.20;;
66886;SDS011;53798;51.680;5.976;2022-11-20T16:29:14;58.28;;;27.85;;
66886;SDS011;53798;51.680;5.976;2022-11-20T16:31:41;61.40;;;25.85;;
66886;SDS011;53798;51.680;5.976;2022-11-20T16:34:08;58.35;;;25.35;;
66886;SDS011;53798;51.680;5.976;2022-11-20T16:36:41;53.58;;;22.45;;
66886;SDS011;53798;51.680;5.976;2022-11-20T16:39:11;52.83;;;24.75;;
66886;SDS011;53798;51.680;5.976;2022-11-20T16:41:42;54.47;;;24.13;;
66886;SDS011;53798;51.680;5.976;2022-11-20T16:44:09;57.25;;;24.27;;
66886;SDS011;53798;51.680;5.976;2022-11-20T16:46:37;55.78;;;24.90;;
66886;SDS011;53798;51.680;5.976;2022-11-20T16:49:06;54.40;;;24.83;;
66886;SDS011;53798;51.680;5.976;2022-11-20T16:51:39;60.10;;;25.67;;
66886;SDS011;53798;51.680;5.976;2022-11-20T16:54:07;48.55;;;22.38;;
66886;SDS011;53798;51.680;5.976;2022-11-20T16:56:36;54.33;;;24.67;;
66886;SDS011;53798;51.680;5.976;2022-11-20T16:59:04;56.65;;;24.48;;
66886;SDS011;53798;51.680;5.976;2022-11-20T17:01:34;60.05;;;24.40;;
66886;SDS011;53798;51.680;5.976;2022-11-20T17:04:05;54.80;;;24.38;;